Time;durP1;ratioP1;P1;durP2;ratioP2;P2;SDS_P1;SDS_P2;PMS_P1;PMS_P2;Temp;Humidity;BMP_temperature;BMP_pressure;BME280_temperature;BME280_humidity;BME280_pressure;Samples;Min_cycle;Max_cycle;Signal;HPM_P1;HPM_P2
2021/03/07 00:00:13;;;;;;;12.78;6.17;;;;;;;-4.66;79.88;100194.09;1766021;81;21099;-78
2021/03/07 00:02:42;;;;;;;13.03;5.40;;;;;;;-4.67;79.97;100187.08;1766184;81;21532;-79
2021/03/07 00:05:11;;;;;;;15.88;5.45;;;;;;;-4.69;79.99;100190.98;1766041;81;20997;-78
2021/03/07 00:07:39;;;;;;;16.25;6.00;;;;;;;-4.70;80.09;100182.63;1766117;81;21136;-79
2021/03/07 00:10:08;;;;;;;12.68;5.45;;;;;;;-4.72;80.13;100186.03;1766084;81;21377;-79
2021/03/07 00:12:37;;;;;;;12.13;5.45;;;;;;;-4.72;80.18;100182.01;1766054;81;21603;-79
2021/03/07 00:15:07;;;;;;;18.52;5.72;;;;;;;-4.74;80.18;100166.14;1766071;81;20926;-79
2021/03/07 00:17:35;;;;;;;11.43;5.53;;;;;;;-4.75;80.18;100169.84;1765955;81;21025;-79
2021/03/07 00:20:09;;;;;;;12.53;5.87;;;;;;;-4.77;80.25;100166.53;1757641;80;21069;-80
2021/03/07 00:22:37;;;;;;;11.68;5.22;;;;;;;-4.77;80.25;100157.67;1757577;81;21397;-79
2021/03/07 00:25:07;;;;;;;13.15;5.47;;;;;;;-4.77;80.20;100157.16;1757370;81;21372;-79
2021/03/07 00:27:36;;;;;;;17.42;6.00;;;;;;;-4.79;80.12;100151.18;1757494;81;21025;-80
2021/03/07 00:30:05;;;;;;;10.13;5.05;;;;;;;-4.79;80.06;100141.80;1757442;80;20938;-79
2021/03/07 00:32:33;;;;;;;13.15;5.35;;;;;;;-4.81;80.03;100145.20;1757453;81;21065;-80
2021/03/07 00:35:02;;;;;;;10.80;5.00;;;;;;;-4.81;80.02;100141.18;1757418;81;21349;-80
2021/03/07 00:37:29;;;;;;;13.35;5.12;;;;;;;-4.81;79.97;100137.16;1738340;81;21160;-79
2021/03/07 00:39:57;;;;;;;11.38;5.33;;;;;;;-4.80;79.89;100136.65;1757446;80;21552;-78
2021/03/07 00:42:25;;;;;;;13.05;5.10;;;;;;;-4.81;79.83;100129.13;1757341;81;21502;-77
2021/03/07 00:44:52;;;;;;;14.07;5.37;;;;;;;-4.81;79.81;100125.63;1757379;81;21124;-77
2021/03/07 00:47:20;;;;;;;13.00;5.80;;;;;;;-4.78;79.75;100122.55;1757323;81;21806;-78
2021/03/07 00:49:48;;;;;;;12.93;5.25;;;;;;;-4.78;79.62;100118.02;1757326;81;21032;-77
2021/03/07 00:52:15;;;;;;;11.78;5.45;;;;;;;-4.77;79.47;100106.78;1757439;81;21037;-78
2021/03/07 00:54:44;;;;;;;13.43;5.70;;;;;;;-4.78;79.43;100115.84;1757400;81;21464;-74
2021/03/07 00:57:12;;;;;;;13.30;5.10;;;;;;;-4.77;79.41;100111.63;1757367;80;21101;-74
2021/03/07 00:59:39;;;;;;;12.45;6.00;;;;;;;-4.77;79.33;100111.63;1757355;81;21375;-74
2021/03/07 01:02:06;;;;;;;12.55;6.05;;;;;;;-4.77;79.23;100100.91;1757274;81;21021;-74
2021/03/07 01:04:34;;;;;;;12.50;5.65;;;;;;;-4.77;79.09;100095.55;1757431;81;21050;-75
2021/03/07 01:07:01;;;;;;;13.70;5.92;;;;;;;-4.76;79.11;100093.19;1757361;81;20887;-75
2021/03/07 01:09:29;;;;;;;12.20;5.65;;;;;;;-4.76;78.93;100082.47;1757344;80;20978;-76
2021/03/07 01:11:59;;;;;;;12.55;6.17;;;;;;;-4.74;78.80;100078.25;1756844;81;21206;-76
2021/03/07 01:14:26;;;;;;;12.98;5.35;;;;;;;-4.74;78.71;100081.75;1757423;81;21647;-76
2021/03/07 01:16:53;;;;;;;14.00;5.72;;;;;;;-4.74;78.65;100075.57;1757322;81;20923;-75
2021/03/07 01:19:21;;;;;;;11.83;5.62;;;;;;;-4.75;78.50;100070.73;1757164;81;21473;-76
2021/03/07 01:21:49;;;;;;;12.07;5.62;;;;;;;-4.74;78.44;100058.98;1757446;81;21573;-76
2021/03/07 01:24:16;;;;;;;13.72;5.85;;;;;;;-4.74;78.26;100058.98;1757306;81;21020;-74
2021/03/07 01:26:44;;;;;;;10.78;5.47;;;;;;;-4.72;78.20;100055.59;1757268;81;20931;-74
2021/03/07 01:29:11;;;;;;;12.93;5.50;;;;;;;-4.70;77.94;100060.74;1757300;81;21065;-74
2021/03/07 01:31:39;;;;;;;11.68;5.83;;;;;;;-4.70;77.75;100054.88;1757380;81;21129;-74
2021/03/07 01:34:08;;;;;;;12.05;5.25;;;;;;;-4.68;77.67;100051.47;1757323;81;21152;-75
2021/03/07 01:36:36;;;;;;;12.50;6.20;;;;;;;-4.67;77.37;100045.60;1757266;80;21914;-75
2021/03/07 01:39:05;;;;;;;11.30;4.92;;;;;;;-4.66;77.29;100041.89;1757273;81;21502;-75
2021/03/07 01:41:33;;;;;;;13.70;6.17;;;;;;;-4.66;77.13;100036.02;1757289;81;20935;-75
2021/03/07 01:44:01;;;;;;;12.65;5.28;;;;;;;-4.68;77.09;100026.02;1757380;81;21481;-75
2021/03/07 01:46:28;;;;;;;12.65;5.30;;;;;;;-4.68;76.73;100026.02;1757279;81;21014;-77
2021/03/07 01:48:56;;;;;;;10.10;4.62;;;;;;;-4.67;76.57;100022.31;1757307;81;21147;-77
2021/03/07 01:51:23;;;;;;;10.00;5.03;;;;;;;-4.66;76.52;100016.44;1757270;81;21104;-77
2021/03/07 01:53:51;;;;;;;12.00;5.15;;;;;;;-4.64;76.41;100016.23;1713910;81;20970;-77
2021/03/07 01:56:18;;;;;;;14.47;5.47;;;;;;;-4.63;76.08;100020.56;1757284;81;20989;-75
2021/03/07 01:58:47;;;;;;;12.47;5.17;;;;;;;-4.63;75.96;100009.84;1757283;81;21552;-75
2021/03/07 02:01:14;;;;;;;14.50;5.87;;;;;;;-4.61;75.63;100004.56;1738053;81;21364;-75
2021/03/07 02:03:54;;;;;;;12.40;4.97;;;;;;;-4.59;75.46;100008.38;1757216;81;21489;-75
2021/03/07 02:06:22;;;;;;;13.25;5.50;;;;;;;-4.59;75.32;99991.78;1757252;81;21077;-75
2021/03/07 02:08:50;;;;;;;10.75;5.50;;;;;;;-4.56;75.27;99993.23;1757249;80;21128;-75
2021/03/07 02:11:18;;;;;;;9.55;4.78;;;;;;;-4.58;75.21;99985.40;1757326;81;20970;-76
2021/03/07 02:13:46;;;;;;;13.90;5.55;;;;;;;-4.58;75.18;99990.75;1757379;81;21188;-75
2021/03/07 02:16:17;;;;;;;12.98;5.83;;;;;;;-4.58;75.20;99993.95;1757202;80;20927;-75
2021/03/07 02:18:48;;;;;;;14.93;5.70;;;;;;;-4.59;75.25;99986.42;1758194;79;21164;-75
2021/03/07 02:21:20;;;;;;;10.85;5.12;;;;;;;-4.60;75.36;99978.59;1765931;81;20930;-76
2021/03/07 02:24:09;;;;;;;12.60;5.80;;;;;;;-4.60;75.23;99983.44;1766112;81;26207;-75
2021/03/07 02:26:45;;;;;;;11.90;5.37;;;;;;;-4.59;75.11;99980.25;1766012;81;22271;-75
2021/03/07 02:29:13;;;;;;;11.53;5.10;;;;;;;-4.60;75.05;99966.54;1765677;80;21540;-75
2021/03/07 02:31:51;;;;;;;11.83;5.97;;;;;;;-4.60;74.93;99973.23;1765897;80;21469;-75
2021/03/07 02:34:35;;;;;;;10.63;5.12;;;;;;;-4.60;74.85;99961.18;1766000;81;20947;-75
2021/03/07 02:37:06;;;;;;;11.55;5.30;;;;;;;-4.59;74.64;99960.15;1766047;81;21465;-76
2021/03/07 02:39:36;;;;;;;12.40;4.50;;;;;;;-4.59;74.55;99973.03;1766228;81;21698;-75
2021/03/07 02:42:12;;;;;;;14.05;5.87;;;;;;;-4.58;74.33;99941.19;1750942;81;21057;-77
2021/03/07 02:45:02;;;;;;;10.03;5.10;;;;;;;-4.57;74.28;99947.37;1766184;80;20943;-77
2021/03/07 02:47:35;;;;;;;14.23;5.15;;;;;;;-4.56;74.28;99946.34;1766058;80;20926;-77
2021/03/07 02:50:07;;;;;;;13.22;5.25;;;;;;;-4.58;74.23;99937.17;1766264;81;20922;-78
2021/03/07 02:52:37;;;;;;;14.55;5.42;;;;;;;-4.57;74.10;99930.78;1765668;80;21200;-77
2021/03/07 02:55:07;;;;;;;16.85;5.83;;;;;;;-4.56;74.10;99920.88;1766062;81;21536;-77
2021/03/07 02:57:34;;;;;;;9.80;5.17;;;;;;;-4.55;73.96;99913.16;1766098;80;21104;-76
2021/03/07 03:00:05;;;;;;;19.17;6.05;;;;;;;-4.55;74.00;99911.81;1766030;80;20934;-76
2021/03/07 03:02:33;;;;;;;12.30;5.72;;;;;;;-4.54;73.88;99909.44;1766088;81;20945;-76
2021/03/07 03:05:01;;;;;;;10.35;5.20;;;;;;;-4.53;73.76;99913.25;1766173;80;21465;-77
2021/03/07 03:07:28;;;;;;;11.00;5.65;;;;;;;-4.52;73.74;99898.00;1766012;81;20981;-77
2021/03/07 03:09:55;;;;;;;13.88;5.85;;;;;;;-4.50;73.60;99901.30;1766145;81;21175;-76
2021/03/07 03:12:23;;;;;;;16.32;6.67;;;;;;;-4.48;73.66;99892.53;1766047;81;20886;-77
2021/03/07 03:14:50;;;;;;;16.77;6.58;;;;;;;-4.48;73.54;99891.19;1766064;80;20998;-77
2021/03/07 03:17:17;;;;;;;13.03;5.75;;;;;;;-4.47;73.47;99895.52;1766068;81;21708;-77
2021/03/07 03:19:45;;;;;;;13.38;6.33;;;;;;;-4.47;73.40;99884.28;1762524;81;21497;-77
2021/03/07 03:22:12;;;;;;;13.45;6.08;;;;;;;-4.49;73.36;99872.95;1738411;81;20895;-77
2021/03/07 03:24:40;;;;;;;21.07;6.65;;;;;;;-4.47;73.39;99871.41;1757397;81;21010;-77
2021/03/07 03:27:09;;;;;;;14.38;6.97;;;;;;;-4.46;73.41;99869.84;1757333;80;20979;-77
2021/03/07 03:29:38;;;;;;;15.30;6.58;;;;;;;-4.43;73.42;99873.45;1757412;81;21202;-77
2021/03/07 03:32:05;;;;;;;13.43;6.80;;;;;;;-4.43;73.49;99860.56;1757359;81;21349;-76
2021/03/07 03:34:34;;;;;;;17.55;6.83;;;;;;;-4.43;73.61;99853.87;1757494;81;21465;-77
2021/03/07 03:37:01;;;;;;;17.23;7.75;;;;;;;-4.45;73.80;99855.42;1757373;81;20931;-77
2021/03/07 03:39:29;;;;;;;18.32;7.70;;;;;;;-4.44;74.01;99849.03;1757314;81;21026;-75
2021/03/07 03:42:01;;;;;;;17.17;7.37;;;;;;;-4.42;74.18;99851.49;1757389;81;21875;-75
2021/03/07 03:44:32;;;;;;;14.95;7.55;;;;;;;-4.41;74.43;99845.09;1757582;81;21124;-76
2021/03/07 03:47:00;;;;;;;17.37;7.72;;;;;;;-4.42;74.42;99832.73;1757560;81;21029;-76
2021/03/07 03:49:34;;;;;;;18.85;7.85;;;;;;;-4.42;74.57;99824.18;1757374;81;20983;-76
2021/03/07 03:52:06;;;;;;;15.90;7.60;;;;;;;-4.42;74.62;99824.18;1757417;81;20915;-77
2021/03/07 03:54:48;;;;;;;15.32;7.70;;;;;;;-4.42;74.78;99822.84;1757580;81;21358;-79
2021/03/07 03:57:16;;;;;;;21.87;8.00;;;;;;;-4.40;74.89;99818.61;1740708;81;21675;-76
2021/03/07 03:59:45;;;;;;;20.55;9.00;;;;;;;-4.39;74.99;99818.91;1757442;81;21073;-75
2021/03/07 04:02:12;;;;;;;21.60;8.88;;;;;;;-4.39;75.14;99806.85;1757363;81;21470;-75
2021/03/07 04:04:40;;;;;;;20.20;8.60;;;;;;;-4.40;75.20;99799.84;1757362;81;21105;-75
2021/03/07 04:07:08;;;;;;;18.05;8.33;;;;;;;-4.41;75.42;99805.72;1757328;81;21353;-74
2021/03/07 04:09:36;;;;;;;17.77;9.05;;;;;;;-4.42;75.49;99801.40;1763356;81;21641;-73
2021/03/07 04:12:04;;;;;;;19.23;8.43;;;;;;;-4.44;75.61;99799.45;1763350;81;20927;-76
2021/03/07 04:14:32;;;;;;;21.90;8.78;;;;;;;-4.46;75.83;99800.17;1757376;81;21053;-76
2021/03/07 04:17:02;;;;;;;19.92;9.55;;;;;;;-4.48;76.10;99796.06;1738535;81;21478;-76
2021/03/07 04:19:31;;;;;;;16.95;8.48;;;;;;;-4.49;76.30;99788.54;1758066;81;21426;-75
2021/03/07 04:22:00;;;;;;;21.77;9.63;;;;;;;-4.49;76.36;99779.68;1763112;81;21541;-77
2021/03/07 04:24:28;;;;;;;24.18;9.13;;;;;;;-4.50;76.42;99777.52;1763043;81;20939;-81
2021/03/07 04:26:57;;;;;;;26.17;9.78;;;;;;;-4.52;76.51;99776.08;1763013;81;21089;-82
2021/03/07 04:29:25;;;;;;;24.98;9.80;;;;;;;-4.55;76.80;99771.15;1746147;81;21081;-78
2021/03/07 04:31:53;;;;;;;20.90;9.43;;;;;;;-4.56;77.03;99767.65;1762508;80;21477;-75
2021/03/07 04:34:22;;;;;;;20.08;9.95;;;;;;;-4.59;77.12;99758.70;1762577;80;21025;-77
2021/03/07 04:36:50;;;;;;;23.02;10.65;;;;;;;-4.60;77.34;99742.83;1763458;81;20990;-76
2021/03/07 04:39:18;;;;;;;21.02;10.35;;;;;;;-4.61;77.60;99743.87;1764150;80;21132;-75
2021/03/07 04:41:47;;;;;;;20.30;9.90;;;;;;;-4.62;77.64;99740.36;1764654;80;21164;-77
2021/03/07 04:44:17;;;;;;;23.57;11.53;;;;;;;-4.63;77.74;99736.08;1764250;81;21610;-76
2021/03/07 04:46:44;;;;;;;26.25;11.00;;;;;;;-4.62;77.95;99739.58;1763114;81;21093;-73
2021/03/07 04:49:12;;;;;;;24.35;10.43;;;;;;;-4.63;77.99;99735.25;1763086;81;21101;-72
2021/03/07 04:51:40;;;;;;;20.20;9.95;;;;;;;-4.62;78.13;99730.98;1748805;80;21168;-73
2021/03/07 04:54:08;;;;;;;22.60;9.75;;;;;;;-4.61;78.15;99737.17;1745020;81;22537;-74
2021/03/07 04:56:35;;;;;;;24.98;11.63;;;;;;;-4.62;78.25;99736.34;1745414;81;22284;-73
2021/03/07 04:59:02;;;;;;;25.77;11.85;;;;;;;-4.59;78.25;99733.76;1732793;82;21186;-74
2021/03/07 05:01:30;;;;;;;24.23;11.53;;;;;;;-4.57;78.28;99732.52;1763256;81;21017;-74
2021/03/07 05:03:58;;;;;;;19.85;9.48;;;;;;;-4.55;78.15;99728.28;1740014;81;21135;-74
2021/03/07 05:06:27;;;;;;;24.57;11.22;;;;;;;-4.53;78.20;99727.03;1738557;81;21580;-75
2021/03/07 05:08:55;;;;;;;24.60;10.82;;;;;;;-4.50;78.17;99719.09;1760699;81;21264;-76
2021/03/07 05:11:22;;;;;;;28.92;12.58;;;;;;;-4.47;78.04;99719.48;1763678;81;21091;-75
2021/03/07 05:13:50;;;;;;;22.87;10.55;;;;;;;-4.44;78.09;99716.89;1763200;81;21001;-75
2021/03/07 05:16:23;;;;;;;24.23;11.70;;;;;;;-4.42;78.04;99718.84;1764590;81;21024;-74
2021/03/07 05:18:50;;;;;;;20.95;10.82;;;;;;;-4.40;77.99;99724.29;1764616;81;21056;-77
2021/03/07 05:21:18;;;;;;;27.17;11.08;;;;;;;-4.38;78.04;99718.72;1760243;81;21239;-76
2021/03/07 05:23:46;;;;;;;23.85;11.65;;;;;;;-4.37;77.88;99713.66;1757962;81;21631;-75
2021/03/07 05:26:15;;;;;;;25.37;11.78;;;;;;;-4.33;77.95;99713.53;1739683;80;20954;-77
2021/03/07 05:28:42;;;;;;;25.15;11.93;;;;;;;-4.30;77.86;99693.52;1758581;81;21505;-77
2021/03/07 05:31:10;;;;;;;23.87;11.30;;;;;;;-4.26;77.79;99709.48;1739482;81;21037;-78
2021/03/07 05:33:38;;;;;;;29.25;11.65;;;;;;;-4.22;77.54;99720.89;1758432;81;21790;-79
2021/03/07 05:36:06;;;;;;;28.25;12.10;;;;;;;-4.18;77.45;99705.20;1758696;80;20954;-78
2021/03/07 05:38:35;;;;;;;22.73;11.33;;;;;;;-4.14;77.34;99700.53;1758831;80;21620;-78
2021/03/07 05:41:02;;;;;;;25.17;10.88;;;;;;;-4.09;77.19;99707.92;1758978;80;21500;-85
2021/03/07 05:43:30;;;;;;;25.45;11.55;;;;;;;-4.05;76.92;99696.55;1758885;80;21124;-81
2021/03/07 05:45:57;;;;;;;23.25;11.03;;;;;;;-3.96;76.68;99694.91;1758940;81;21540;-78
2021/03/07 05:48:29;;;;;;;23.95;11.22;;;;;;;-3.90;76.63;99699.41;1758878;81;21029;-79
2021/03/07 05:50:57;;;;;;;25.55;10.25;;;;;;;-3.82;76.66;99693.77;1759005;80;21148;-78
2021/03/07 05:53:25;;;;;;;22.75;10.50;;;;;;;-3.73;76.04;99693.80;1758893;81;21061;-78
2021/03/07 05:55:52;;;;;;;22.30;9.93;;;;;;;-3.69;75.38;99709.77;1759021;81;21057;-78
2021/03/07 05:58:21;;;;;;;20.95;10.80;;;;;;;-3.67;75.14;99689.73;1758861;81;21418;-73
2021/03/07 06:00:48;;;;;;;22.27;11.00;;;;;;;-3.60;75.15;99695.55;1758814;81;21018;-72
2021/03/07 06:03:21;;;;;;;24.00;10.82;;;;;;;-3.56;74.79;99693.55;1758858;81;21180;-74
2021/03/07 06:05:51;;;;;;;;;;;;;;;-3.49;74.84;99684.10;1761507;81;20899;-71
2021/03/07 06:08:20;;;;;;;24.57;10.48;;;;;;;-3.43;74.35;99689.37;1758979;81;20136;-71
2021/03/07 06:10:48;;;;;;;26.95;11.08;;;;;;;-3.37;74.04;99671.05;1758949;80;21810;-72
2021/03/07 06:13:16;;;;;;;24.98;10.43;;;;;;;-3.32;73.72;99669.86;1758842;81;20985;-72
2021/03/07 06:15:50;;;;;;;20.60;10.15;;;;;;;-3.25;73.92;99663.59;1758346;81;21069;-73
2021/03/07 06:18:21;;;;;;;19.65;9.78;;;;;;;-3.17;73.25;99656.59;1758866;81;21117;-69
2021/03/07 06:20:53;;;;;;;23.55;11.43;;;;;;;-3.09;72.80;99681.28;1760947;81;21199;-73
2021/03/07 06:23:36;;;;;;;22.15;10.38;;;;;;;-3.01;72.18;99670.25;1764601;81;21203;-80
2021/03/07 06:26:10;;;;;;;24.87;10.68;;;;;;;-2.92;71.78;99656.52;1764538;81;21521;-78
2021/03/07 06:28:38;;;;;;;23.52;10.80;;;;;;;-2.85;71.48;99644.61;1764587;81;21009;-77
2021/03/07 06:31:29;;;;;;;25.95;10.55;;;;;;;-2.76;71.12;99658.55;1764549;81;21477;-77
2021/03/07 06:33:57;;;;;;;21.45;10.48;;;;;;;-2.65;71.21;99651.07;1763665;80;21860;-77
2021/03/07 06:36:25;;;;;;;23.52;11.28;;;;;;;-2.52;71.02;99652.77;1764012;80;21198;-76
2021/03/07 06:38:59;;;;;;;22.45;10.53;;;;;;;-2.41;69.87;99662.74;1764032;81;21519;-75
2021/03/07 06:41:31;;;;;;;29.90;10.50;;;;;;;-2.31;70.06;99647.41;1763224;80;21564;-76
2021/03/07 06:44:15;;;;;;;27.15;11.28;;;;;;;-2.21;69.72;99647.11;1764086;81;21576;-76
2021/03/07 06:46:46;;;;;;;25.80;11.55;;;;;;;-2.12;69.04;99634.97;1764122;81;21556;-75
2021/03/07 06:49:26;;;;;;;19.05;10.40;;;;;;;-2.07;68.33;99629.72;1763849;80;21358;-76
2021/03/07 06:52:02;;;;;;;25.82;11.28;;;;;;;-2.01;68.21;99642.25;1765096;81;20973;-78
2021/03/07 06:54:28;;;;;;;24.67;12.13;;;;;;;-1.90;68.09;99633.08;1762921;81;21583;-76
2021/03/07 06:56:56;;;;;;;24.82;11.33;;;;;;;-1.75;68.04;99624.02;1762939;81;21060;-79
2021/03/07 06:59:24;;;;;;;21.50;11.25;;;;;;;-1.66;67.21;99634.18;1761145;81;21056;-80
2021/03/07 07:01:54;;;;;;;22.50;10.08;;;;;;;-1.61;67.06;99609.25;1760225;81;21192;-79
2021/03/07 07:04:23;;;;;;;22.42;10.35;;;;;;;-1.60;66.90;99597.95;1760692;81;21528;-76
2021/03/07 07:07:12;;;;;;;25.25;11.28;;;;;;;-1.56;66.67;99617.97;1760381;81;20938;-75
2021/03/07 07:09:41;;;;;;;23.32;11.28;;;;;;;-1.45;66.77;99599.64;1733648;82;20917;-73
2021/03/07 07:12:20;;;;;;;23.47;11.48;;;;;;;-1.23;65.58;99606.58;1737626;80;21223;-73
2021/03/07 07:14:48;;;;;;;20.02;10.35;;;;;;;-1.05;65.07;99599.13;1748478;81;21397;-73
2021/03/07 07:17:18;;;;;;;20.82;10.72;;;;;;;-0.83;64.76;99593.91;1755593;81;20964;-73
2021/03/07 07:19:47;;;;;;;30.92;13.20;;;;;;;-0.50;64.71;99603.94;1754498;81;21173;-73
2021/03/07 07:22:17;;;;;;;23.98;10.72;;;;;;;-0.16;63.18;99590.50;1763455;81;21519;-73
2021/03/07 07:24:44;;;;;;;38.63;15.55;;;;;;;0.03;62.54;99595.09;1765826;79;21192;-74
2021/03/07 07:27:12;;;;;;;19.05;10.38;;;;;;;0.25;62.46;99583.84;1768899;79;21453;-75
2021/03/07 07:29:40;;;;;;;20.27;10.23;;;;;;;0.50;61.55;99566.66;1759683;80;21004;-75
2021/03/07 07:32:16;;;;;;;19.48;8.85;;;;;;;0.74;60.34;99575.85;1766347;81;21151;-75
2021/03/07 07:34:54;;;;;;;24.57;9.98;;;;;;;0.75;58.91;99555.88;1766586;81;21040;-74
2021/03/07 07:37:33;;;;;;;21.25;11.15;;;;;;;0.73;59.92;99563.41;1766548;81;21192;-74
2021/03/07 07:40:04;;;;;;;21.17;9.33;;;;;;;0.85;58.90;99558.16;1766557;81;21367;-73
2021/03/07 07:42:37;;;;;;;25.65;12.20;;;;;;;0.96;59.07;99556.41;1766622;80;21183;-73
2021/03/07 07:45:19;;;;;;;22.50;9.15;;;;;;;1.24;59.61;99563.45;1766834;80;21175;-74
2021/03/07 07:47:52;;;;;;;19.02;9.08;;;;;;;1.43;57.29;99553.91;1766374;80;21164;-73
2021/03/07 07:50:34;;;;;;;23.18;10.80;;;;;;;1.31;57.47;99559.47;1766737;81;21144;-73
2021/03/07 07:53:06;;;;;;;22.05;10.82;;;;;;;1.09;58.15;99551.14;1766936;81;22181;-72
2021/03/07 07:56:00;;;;;;;25.90;10.70;;;;;;;0.91;59.00;99543.64;1745168;81;21162;-75
2021/03/07 07:58:43;;;;;;;20.80;11.25;;;;;;;0.83;59.13;99544.09;1746487;81;21207;-73
2021/03/07 08:01:13;;;;;;;19.92;9.83;;;;;;;0.72;59.37;99531.52;1758723;81;21131;-72
2021/03/07 08:03:46;;;;;;;19.10;10.10;;;;;;;0.59;59.92;99525.14;1756357;81;21147;-72
2021/03/07 08:06:26;;;;;;;;;;;;;;;0.53;60.34;99520.77;1759224;81;21361;-74
2021/03/07 08:08:55;;;;;;;15.88;8.48;;;;;;;0.52;60.99;99507.80;1753204;81;20248;-70
2021/03/07 08:11:30;;;;;;;17.67;9.73;;;;;;;0.52;60.90;99510.50;1756754;80;21151;-72
2021/03/07 08:13:59;;;;;;;19.07;9.35;;;;;;;0.57;61.54;99515.97;1765660;81;21026;-73
2021/03/07 08:16:43;;;;;;;24.10;8.83;;;;;;;0.65;60.69;99510.63;1767372;81;21587;-73
2021/03/07 08:19:13;;;;;;;16.55;8.45;;;;;;;0.65;59.85;99514.68;1767277;80;21362;-73
2021/03/07 08:22:03;;;;;;;16.93;8.03;;;;;;;0.58;59.46;99507.30;1765885;81;21154;-74
2021/03/07 08:24:54;;;;;;;14.55;8.48;;;;;;;0.46;60.00;99491.24;1764363;81;20938;-74
2021/03/07 08:27:40;;;;;;;16.15;8.80;;;;;;;0.41;60.31;99487.66;1763846;81;21243;-73
2021/03/07 08:30:16;;;;;;;14.63;7.40;;;;;;;0.36;60.44;99481.66;1764367;80;21109;-74
2021/03/07 08:32:46;;;;;;;13.30;7.72;;;;;;;0.27;60.50;99485.32;1747011;81;21391;-72
2021/03/07 08:35:25;;;;;;;17.57;7.85;;;;;;;0.17;61.04;99478.44;1764382;81;21093;-71
2021/03/07 08:38:15;;;;;;;16.25;7.75;;;;;;;0.13;61.00;99480.53;1732947;81;21148;-72
2021/03/07 08:40:56;;;;;;;18.82;9.23;;;;;;;0.10;61.26;99468.34;1755102;80;20922;-75
2021/03/07 08:43:31;;;;;;;26.30;13.08;;;;;;;0.07;61.39;99466.68;1753552;81;21001;-77
2021/03/07 08:46:11;;;;;;;21.52;12.80;;;;;;;0.06;61.52;99461.00;1766215;80;21371;-74
2021/03/07 08:48:49;;;;;;;19.82;11.30;;;;;;;0.04;61.40;99477.44;1768915;81;21128;-81
2021/03/07 08:51:18;;;;;;;17.20;7.97;;;;;;;0.04;62.35;99445.59;1768780;81;21029;-70
2021/03/07 08:53:46;;;;;;;13.72;7.72;;;;;;;0.03;61.66;99458.80;1725817;82;21088;-70
2021/03/07 08:56:15;;;;;;;16.85;8.35;;;;;;;0.03;62.23;99450.17;1725714;83;21139;-76
2021/03/07 08:58:47;;;;;;;18.60;7.20;;;;;;;0.04;62.48;99457.73;1725878;83;21459;-77
2021/03/07 09:01:15;;;;;;;17.82;8.30;;;;;;;0.11;61.72;99462.42;1725940;83;21508;-76
2021/03/07 09:03:43;;;;;;;13.00;7.53;;;;;;;0.13;61.84;99450.84;1725768;81;21464;-71
2021/03/07 09:06:11;;;;;;;20.08;8.13;;;;;;;0.18;61.71;99457.12;1676240;83;21174;-73
2021/03/07 09:08:40;;;;;;;16.90;8.45;;;;;;;0.22;61.69;99440.70;1726003;81;21136;-67
2021/03/07 09:11:09;;;;;;;23.67;9.80;;;;;;;0.27;61.63;99448.88;1709041;81;22500;-69
2021/03/07 09:13:50;;;;;;;18.45;7.70;;;;;;;0.37;61.85;99438.73;1732290;81;21146;-70
2021/03/07 09:16:17;;;;;;;17.15;7.17;;;;;;;0.49;61.54;99446.70;1726725;83;21107;-66
2021/03/07 09:18:45;;;;;;;13.30;6.65;;;;;;;0.62;61.47;99436.30;1730697;81;21217;-65
2021/03/07 09:21:16;;;;;;;17.25;7.40;;;;;;;0.72;61.01;99445.59;1743293;80;21163;-79
2021/03/07 09:23:46;;;;;;;17.10;7.95;;;;;;;0.76;60.92;99429.15;1747788;82;21210;-81
2021/03/07 09:26:22;;;;;;;13.83;7.05;;;;;;;0.82;61.05;99424.08;1747528;82;21524;-82
2021/03/07 09:28:54;;;;;;;13.08;7.15;;;;;;;0.85;60.10;99422.22;1747729;82;21120;-81
2021/03/07 09:31:32;;;;;;;17.40;7.67;;;;;;;0.85;60.77;99427.63;1747616;82;21123;-83
2021/03/07 09:34:03;;;;;;;14.30;7.95;;;;;;;0.89;60.73;99426.86;1747294;80;21610;-83
2021/03/07 09:36:38;;;;;;;14.45;7.50;;;;;;;0.94;60.70;99422.86;1747638;82;22308;-83
2021/03/07 09:39:09;;;;;;;15.98;6.47;;;;;;;0.98;60.69;99417.76;1747605;82;21170;-79
2021/03/07 09:41:49;;;;;;;14.03;7.12;;;;;;;1.03;60.40;99406.17;1747517;82;21191;-79
2021/03/07 09:44:22;;;;;;;15.60;6.85;;;;;;;1.05;60.19;99418.36;1747735;82;21555;-80
2021/03/07 09:46:52;;;;;;;15.48;7.33;;;;;;;1.09;60.11;99404.61;1747679;80;21028;-81
2021/03/07 09:49:24;;;;;;;17.30;7.53;;;;;;;1.08;59.77;99398.92;1747240;80;21384;-80
2021/03/07 09:51:55;;;;;;;11.70;6.80;;;;;;;1.08;60.19;99409.74;1747365;80;21599;-82
2021/03/07 09:54:22;;;;;;;14.43;7.05;;;;;;;1.10;60.17;99402.19;1718621;82;21064;-82
2021/03/07 09:56:52;;;;;;;14.10;6.95;;;;;;;1.08;60.01;99419.74;1746015;82;21567;-81
2021/03/07 09:59:27;;;;;;;13.35;7.12;;;;;;;1.07;60.45;99408.64;1747087;82;21151;-79
2021/03/07 10:02:02;;;;;;;15.20;6.62;;;;;;;1.07;59.87;99395.12;1747583;82;21370;-81
2021/03/07 10:04:46;;;;;;;13.72;7.05;;;;;;;1.04;60.40;99399.16;1747731;82;21555;-82
2021/03/07 10:07:21;;;;;;;14.47;7.12;;;;;;;1.03;60.83;99411.58;1747550;82;21183;-77
2021/03/07 10:10:13;;;;;;;13.90;7.20;;;;;;;1.02;60.94;99395.90;1747882;81;21551;-87
2021/03/07 10:12:56;;;;;;;10.58;5.97;;;;;;;1.07;61.52;99387.84;1747795;82;21488;-76
2021/03/07 10:15:40;;;;;;;13.13;6.37;;;;;;;1.09;60.82;99378.93;1746273;80;22289;-74
2021/03/07 10:18:17;;;;;;;14.38;7.08;;;;;;;1.10;60.05;99385.16;1746889;82;21076;-75
2021/03/07 10:20:51;;;;;;;13.03;6.37;;;;;;;1.07;60.44;99377.02;1746372;82;21053;-77
2021/03/07 10:23:19;;;;;;;12.05;6.65;;;;;;;1.04;60.40;99376.19;1752871;80;21136;-76
2021/03/07 10:25:47;;;;;;;11.45;6.67;;;;;;;1.04;60.10;99382.94;1747321;82;21603;-75
2021/03/07 10:28:23;;;;;;;11.33;5.83;;;;;;;1.05;60.63;99383.75;1744685;82;21587;-75
2021/03/07 10:30:52;;;;;;;10.80;5.12;;;;;;;1.06;60.00;99375.39;1747572;82;21167;-76
2021/03/07 10:33:30;;;;;;;11.53;6.15;;;;;;;1.04;59.96;99373.48;1747387;82;20957;-74
2021/03/07 10:36:12;;;;;;;12.50;6.40;;;;;;;1.00;59.98;99371.02;1747419;82;21004;-73
2021/03/07 10:38:45;;;;;;;13.00;6.35;;;;;;;0.96;60.47;99363.14;1747548;82;21707;-74
2021/03/07 10:41:31;;;;;;;18.48;7.75;;;;;;;0.92;60.23;99353.91;1747076;82;21269;-74
2021/03/07 10:44:02;;;;;;;15.80;7.17;;;;;;;0.89;60.37;99354.42;1747649;82;21579;-79
2021/03/07 10:46:39;;;;;;;11.48;5.92;;;;;;;0.86;60.65;99360.34;1746682;80;21017;-74
2021/03/07 10:49:10;;;;;;;10.30;5.95;;;;;;;0.86;60.81;99358.99;1743699;80;21222;-73
2021/03/07 10:51:40;;;;;;;11.60;6.65;;;;;;;0.88;61.07;99356.84;1747063;82;21139;-75
2021/03/07 10:54:07;;;;;;;13.70;6.62;;;;;;;0.87;60.66;99345.76;1720036;82;21823;-72
2021/03/07 10:56:41;;;;;;;11.60;6.12;;;;;;;0.86;60.84;99346.83;1747010;82;21159;-73
2021/03/07 10:59:07;;;;;;;9.63;6.03;;;;;;;0.87;60.76;99331.70;1746977;80;21152;-74
2021/03/07 11:01:35;;;;;;;14.78;7.80;;;;;;;0.88;60.76;99329.82;1747159;81;21197;-72
2021/03/07 11:04:04;;;;;;;19.42;8.70;;;;;;;0.89;61.15;99343.08;1747224;80;21203;-73
2021/03/07 11:06:31;;;;;;;10.80;5.80;;;;;;;0.90;61.11;99327.67;1747367;82;22279;-74
2021/03/07 11:08:59;;;;;;;12.25;5.83;;;;;;;0.90;61.21;99333.89;1747174;82;21167;-74
2021/03/07 11:11:26;;;;;;;12.40;6.20;;;;;;;0.90;61.09;99319.03;1747223;82;21108;-73
2021/03/07 11:13:54;;;;;;;21.40;9.83;;;;;;;0.89;61.23;99342.27;1747161;82;21158;-72
2021/03/07 11:16:22;;;;;;;9.90;5.58;;;;;;;0.89;61.42;99317.94;1747381;80;21060;-72
2021/03/07 11:18:50;;;;;;;9.03;5.65;;;;;;;0.89;61.44;99327.40;1747154;80;22861;-73
2021/03/07 11:21:18;;;;;;;11.95;6.35;;;;;;;0.89;61.86;99313.34;1749702;80;21650;-73
2021/03/07 11:23:45;;;;;;;13.53;8.20;;;;;;;0.90;61.73;99300.11;1725352;80;21144;-73
2021/03/07 11:26:13;;;;;;;14.95;7.80;;;;;;;0.91;61.98;99310.39;1777928;80;21180;-72
2021/03/07 11:28:43;;;;;;;11.30;5.50;;;;;;;0.92;62.29;99299.31;1778215;80;21204;-73
2021/03/07 11:31:11;;;;;;;13.15;7.25;;;;;;;0.94;62.30;99298.52;1754681;80;22282;-73
2021/03/07 11:33:40;;;;;;;14.10;6.37;;;;;;;0.93;62.17;99306.36;1746985;80;21081;-73
2021/03/07 11:36:10;;;;;;;10.13;5.85;;;;;;;0.91;61.83;99307.69;1747291;82;21591;-74
2021/03/07 11:38:39;;;;;;;19.75;7.55;;;;;;;0.90;62.45;99287.95;1747782;82;21558;-73
2021/03/07 11:41:07;;;;;;;16.80;8.60;;;;;;;0.92;62.18;99286.34;1747717;80;21147;-73